Airport details for: LKKU (Czech Republic)

Metar

LKKU 221500Z 20006KT 140V230 CAVOK 32/07 Q1012

General details

ICAO: LKKU
IATA: UHE
Name (city): Kunovice
Major:
Country: Czech Republic
vACC: Czech vACC
Description:

Web: http://www.vacc-cz.org/airports/others#lkku

Scenery links:
FS9 scenery: Download
FSX/P3D scenery:
XP scenery:
Elevation: 581 ft.
Transition altitude: 5000 ft.
MSA: 6500 ft.
Latitude: 49.029444
Longitude: 17.439722
LKKU Charts
LKKU Notams
LKKU Online stations

Runways

Number Course Length Elevation Lat Lon ILS ILS freq ILS FAC GP
03C 23° 6562ft / 2000 m 574ft 49.021283 17.433989 - - 3.0°
03L 23° 4856ft / 1480 m 581ft 49.01688 17.420992 - - 3.0°
03R 23° 5545ft / 1690 m 581ft 49.016868 17.437672 - - 3.0°
21C 203° 6562ft / 2000 m 581ft 49.037531 17.445714 - - 3.0°
21L 203° 5545ft / 1690 m 581ft 49.033672 17.437776 - - 3.0°
21R 203° 4856ft / 1480 m 581ft 49.033659 17.437742 - - 3.0°